Time;durP1;ratioP1;P1;durP2;ratioP2;P2;SDS_P1;SDS_P2;PMS_P1;PMS_P2;Temp;Humidity;BMP_temperature;BMP_pressure;BME280_temperature;BME280_humidity;BME280_pressure;Samples;Min_cycle;Max_cycle;Signal;HPM_P1;HPM_P2
2022/08/30 00:03:18;;;;;;;3.00;1.83;;;17.50;81.30;;;;;;5031817;28;20459;-73
2022/08/30 00:06:05;;;;;;;4.10;2.23;;;17.50;81.90;;;;;;5027253;28;20498;-72
2022/08/30 00:08:52;;;;;;;11.93;2.17;;;17.70;82.10;;;;;;5024325;28;20450;-73
2022/08/30 00:11:38;;;;;;;4.00;2.10;;;17.70;81.10;;;;;;5025132;28;20441;-73
2022/08/30 00:14:26;;;;;;;3.70;2.30;;;17.80;79.80;;;;;;5030661;28;20543;-73
2022/08/30 00:17:11;;;;;;;3.93;2.13;;;17.70;80.80;;;;;;5031232;28;20831;-73
2022/08/30 00:19:58;;;;;;;6.03;2.80;;;17.60;80.20;;;;;;5024728;28;20558;-73
2022/08/30 00:22:44;;;;;;;5.13;2.30;;;17.50;80.80;;;;;;5028904;28;20487;-73
2022/08/30 00:25:30;;;;;;;4.03;2.27;;;17.40;81.50;;;;;;5027409;28;20519;-73
2022/08/30 00:28:16;;;;;;;4.10;2.10;;;17.50;81.90;;;;;;5031548;28;20823;-73
2022/08/30 00:31:02;;;;;;;3.73;2.13;;;17.40;81.80;;;;;;5026358;28;20796;-73
2022/08/30 00:33:48;;;;;;;6.90;2.50;;;17.40;81.80;;;;;;5031315;28;20989;-73
2022/08/30 00:36:36;;;;;;;4.63;2.50;;;17.40;82.30;;;;;;5030014;28;20965;-72
2022/08/30 00:39:21;;;;;;;3.50;1.83;;;17.40;81.70;;;;;;5029365;28;20472;-72
2022/08/30 00:42:08;;;;;;;9.83;2.70;;;17.40;81.20;;;;;;5034018;28;20495;-73
2022/08/30 00:44:53;;;;;;;3.10;2.10;;;17.30;81.70;;;;;;5028114;28;20491;-73
2022/08/30 00:47:39;;;;;;;3.77;2.10;;;17.30;82.00;;;;;;5034672;28;20517;-73
2022/08/30 00:50:28;;;;;;;5.17;2.13;;;17.20;83.40;;;;;;5032009;28;20503;-73
2022/08/30 00:53:19;;;;;;;5.80;2.70;;;17.00;82.30;;;;;;5034762;28;20451;-73
2022/08/30 00:56:06;;;;;;;3.27;2.40;;;16.90;83.20;;;;;;5030900;28;20464;-73
2022/08/30 00:58:55;;;;;;;5.37;2.77;;;16.90;84.50;;;;;;5032140;28;20467;-73
2022/08/30 01:01:41;;;;;;;5.43;2.90;;;16.90;84.00;;;;;;5036133;28;20464;-73
2022/08/30 01:04:28;;;;;;;8.73;2.57;;;17.00;84.50;;;;;;5030335;28;20457;-74
2022/08/30 01:07:15;;;;;;;4.90;2.60;;;17.00;84.30;;;;;;5033620;28;20456;-73
2022/08/30 01:10:05;;;;;;;3.70;2.10;;;17.00;83.00;;;;;;5031760;28;20476;-73
2022/08/30 01:12:50;;;;;;;4.07;2.47;;;17.00;84.80;;;;;;5033179;28;20502;-73
2022/08/30 01:15:36;;;;;;;9.50;2.90;;;16.90;84.80;;;;;;5026621;28;20449;-73
2022/08/30 01:18:23;;;;;;;3.43;2.30;;;17.00;84.70;;;;;;5028608;28;20430;-73
2022/08/30 01:21:16;;;;;;;9.17;2.53;;;17.20;84.20;;;;;;5031906;28;20447;-73
2022/08/30 01:24:06;;;;;;;6.77;2.63;;;17.00;84.60;;;;;;5034750;28;20603;-73
2022/08/30 01:26:51;;;;;;;6.57;2.50;;;17.00;84.90;;;;;;5030500;28;20445;-72
2022/08/30 01:29:37;;;;;;;4.33;2.20;;;16.90;85.30;;;;;;5026871;28;20459;-73
2022/08/30 01:32:27;;;;;;;6.43;2.20;;;16.80;86.10;;;;;;5034010;28;20777;-73
2022/08/30 01:35:17;;;;;;;9.00;2.50;;;16.90;86.20;;;;;;5031858;28;20432;-73
2022/08/30 01:38:02;;;;;;;6.80;2.40;;;17.00;86.20;;;;;;5032309;28;20450;-73
2022/08/30 01:40:50;;;;;;;5.87;2.60;;;17.20;85.90;;;;;;5032481;28;20818;-73
2022/08/30 01:43:36;;;;;;;10.00;2.53;;;17.10;85.70;;;;;;5034992;28;20660;-73
2022/08/30 01:46:23;;;;;;;6.20;2.77;;;17.10;86.00;;;;;;5030638;28;21025;-73
2022/08/30 01:49:12;;;;;;;5.77;2.63;;;17.00;86.00;;;;;;5027527;28;20604;-73
2022/08/30 01:51:58;;;;;;;3.90;2.50;;;17.10;85.80;;;;;;5030621;28;20431;-73
2022/08/30 01:54:45;;;;;;;5.90;2.13;;;17.10;85.00;;;;;;5032749;28;20519;-73
2022/08/30 01:57:32;;;;;;;6.13;2.87;;;16.90;85.60;;;;;;5029506;28;20515;-73
2022/08/30 02:00:18;;;;;;;4.83;2.33;;;16.80;87.30;;;;;;5031066;28;20494;-73
2022/08/30 02:03:05;;;;;;;8.30;2.97;;;16.80;87.50;;;;;;5031779;28;20601;-73
2022/08/30 02:05:51;;;;;;;3.10;2.23;;;16.80;88.00;;;;;;5032549;28;20464;-73
2022/08/30 02:08:39;;;;;;;5.20;3.00;;;16.80;87.90;;;;;;5023447;28;20473;-73
2022/08/30 02:11:24;;;;;;;7.50;2.27;;;16.90;87.90;;;;;;5030331;28;20447;-73
2022/08/30 02:14:11;;;;;;;6.23;2.93;;;16.90;87.40;;;;;;5030204;28;20449;-73
2022/08/30 02:16:57;;;;;;;4.70;2.20;;;16.90;86.70;;;;;;5029684;28;20874;-73
2022/08/30 02:19:43;;;;;;;5.03;3.03;;;16.80;87.60;;;;;;5027950;28;20676;-73
2022/08/30 02:22:29;;;;;;;3.90;2.20;;;16.60;89.00;;;;;;5028710;28;20820;-72
2022/08/30 02:25:15;;;;;;;7.73;2.40;;;16.70;89.30;;;;;;5031703;28;20444;-73
2022/08/30 02:28:00;;;;;;;4.80;2.23;;;16.50;89.60;;;;;;5027904;28;20534;-72
2022/08/30 02:30:48;;;;;;;7.87;3.03;;;16.50;90.50;;;;;;5024164;28;20579;-73
2022/08/30 02:33:33;;;;;;;6.07;2.10;;;16.70;90.70;;;;;;5027449;28;20468;-73
2022/08/30 02:36:20;;;;;;;10.03;2.80;;;16.70;90.10;;;;;;5030776;28;21869;-73
2022/08/30 02:39:06;;;;;;;4.73;2.33;;;16.80;90.60;;;;;;5031513;28;20467;-73
2022/08/30 02:41:51;;;;;;;6.70;2.30;;;17.00;90.90;;;;;;5030100;28;20451;-73
2022/08/30 02:44:37;;;;;;;4.10;2.27;;;17.00;90.10;;;;;;5035599;28;20419;-72
2022/08/30 02:47:24;;;;;;;4.53;2.50;;;16.90;90.10;;;;;;5024225;28;20798;-73
2022/08/30 02:50:10;;;;;;;7.60;2.33;;;16.80;90.60;;;;;;5035547;28;20454;-73
2022/08/30 02:52:56;;;;;;;4.50;2.67;;;16.70;90.90;;;;;;5031873;28;20464;-73
2022/08/30 02:55:42;;;;;;;4.63;2.40;;;16.60;90.90;;;;;;5026494;28;20421;-72
2022/08/30 02:58:28;;;;;;;5.40;2.30;;;16.60;91.10;;;;;;5022142;28;20451;-73
2022/08/30 03:01:17;;;;;;;6.40;3.10;;;16.50;91.90;;;;;;5035076;28;20794;-73
2022/08/30 03:04:04;;;;;;;8.00;3.20;;;16.50;92.10;;;;;;5029860;28;20786;-73
2022/08/30 03:06:50;;;;;;;4.50;2.33;;;16.50;91.90;;;;;;5029148;28;20457;-73
2022/08/30 03:09:36;;;;;;;7.57;3.10;;;16.60;91.90;;;;;;5029803;28;20553;-74
2022/08/30 03:12:21;;;;;;;7.90;3.07;;;16.60;91.70;;;;;;5030588;28;20458;-73
2022/08/30 03:15:09;;;;;;;11.57;2.90;;;16.50;91.50;;;;;;5031739;28;20580;-73
2022/08/30 03:17:55;;;;;;;6.70;2.50;;;16.40;91.80;;;;;;5018459;28;20994;-72
2022/08/30 03:20:42;;;;;;;4.97;2.40;;;16.40;91.60;;;;;;5028130;28;20435;-73
2022/08/30 03:23:28;;;;;;;4.17;2.67;;;16.30;92.00;;;;;;5025275;28;20463;-73
2022/08/30 03:26:14;;;;;;;5.40;2.50;;;16.30;91.90;;;;;;5030429;28;20407;-73
2022/08/30 03:29:00;;;;;;;6.63;3.73;;;16.20;92.20;;;;;;5037316;28;20474;-73
2022/08/30 03:31:46;;;;;;;4.73;2.60;;;16.20;92.10;;;;;;5025528;28;20568;-72
2022/08/30 03:34:32;;;;;;;4.40;2.70;;;16.20;92.30;;;;;;5033122;28;20599;-73
2022/08/30 03:37:19;;;;;;;6.80;2.63;;;16.10;92.40;;;;;;5023775;28;20787;-73
2022/08/30 03:40:07;;;;;;;6.33;2.60;;;16.00;92.70;;;;;;5031958;28;20909;-73
2022/08/30 03:42:53;;;;;;;4.10;2.57;;;16.00;92.90;;;;;;5031739;28;20503;-73
2022/08/30 03:45:39;;;;;;;6.17;2.80;;;16.10;93.00;;;;;;5026431;28;20849;-73
2022/08/30 03:48:25;;;;;;;4.67;2.50;;;16.10;93.00;;;;;;5027263;28;20472;-73
2022/08/30 03:51:10;;;;;;;5.27;2.97;;;16.20;92.70;;;;;;5028574;28;20451;-73
2022/08/30 03:53:57;;;;;;;6.97;2.53;;;16.30;93.30;;;;;;5032251;28;22126;-72
2022/08/30 03:56:43;;;;;;;8.30;2.90;;;16.30;93.50;;;;;;5026286;28;20422;-72
2022/08/30 03:59:28;;;;;;;8.03;2.93;;;16.30;93.10;;;;;;5027096;28;20508;-73
2022/08/30 04:02:14;;;;;;;10.03;3.10;;;16.20;93.60;;;;;;5034012;28;20756;-73
2022/08/30 04:04:59;;;;;;;6.17;2.30;;;16.10;93.50;;;;;;5024512;28;20482;-73
2022/08/30 04:07:45;;;;;;;4.67;2.73;;;16.00;93.70;;;;;;5027022;28;20529;-73
2022/08/30 04:10:34;;;;;;;3.70;2.50;;;16.00;93.70;;;;;;5032090;28;20447;-73
2022/08/30 04:13:20;;;;;;;5.60;3.50;;;15.90;93.70;;;;;;5031966;28;20518;-73
2022/08/30 04:16:06;;;;;;;5.50;2.90;;;16.00;93.70;;;;;;5031326;28;20451;-73
2022/08/30 04:18:52;;;;;;;6.53;2.70;;;16.00;93.70;;;;;;5042048;28;20530;-73
2022/08/30 04:21:38;;;;;;;5.47;2.43;;;15.80;93.90;;;;;;5031666;28;20422;-73
2022/08/30 04:24:24;;;;;;;9.10;3.40;;;15.70;94.40;;;;;;5033515;28;20993;-73
2022/08/30 04:27:11;;;;;;;4.20;2.70;;;15.60;94.80;;;;;;5035887;28;20521;-72
2022/08/30 04:29:59;;;;;;;5.27;2.80;;;15.60;94.90;;;;;;5033573;28;20603;-72
2022/08/30 04:32:45;;;;;;;7.73;2.90;;;15.50;95.70;;;;;;5037184;28;20497;-73
2022/08/30 04:35:31;;;;;;;13.03;2.80;;;15.50;96.00;;;;;;5032471;28;20934;-73
2022/08/30 04:38:17;;;;;;;9.97;3.17;;;15.60;95.70;;;;;;5056815;22;21709;-74
2022/08/30 04:41:03;;;;;;;7.13;2.90;;;15.60;95.80;;;;;;5049760;28;20829;-75
2022/08/30 04:43:50;;;;;;;9.73;3.17;;;15.70;95.60;;;;;;5053496;28;20451;-72
2022/08/30 04:46:36;;;;;;;9.27;2.70;;;15.80;95.70;;;;;;5049905;28;20425;-74
2022/08/30 04:49:22;;;;;;;5.33;2.67;;;15.90;95.40;;;;;;5054224;28;20472;-74
2022/08/30 04:52:09;;;;;;;8.57;3.73;;;15.90;95.40;;;;;;5050331;28;20522;-74
2022/08/30 04:54:55;;;;;;;6.10;3.57;;;15.90;95.20;;;;;;5048876;28;20451;-74
2022/08/30 04:57:42;;;;;;;4.67;2.63;;;15.90;95.50;;;;;;5049468;28;20944;-74
2022/08/30 05:00:30;;;;;;;7.20;2.63;;;15.80;95.70;;;;;;5054725;28;20441;-74
2022/08/30 05:03:16;;;;;;;3.83;2.70;;;15.60;96.00;;;;;;5051337;28;20444;-75
2022/08/30 05:06:02;;;;;;;3.80;2.63;;;15.70;96.60;;;;;;5042300;28;20430;-73
2022/08/30 05:08:47;;;;;;;11.50;3.37;;;15.60;96.40;;;;;;5052344;28;20594;-74
2022/08/30 05:11:33;;;;;;;5.03;2.73;;;15.40;97.30;;;;;;5057655;28;20801;-73
2022/08/30 05:14:18;;;;;;;8.83;2.80;;;15.50;98.00;;;;;;5050637;28;20447;-74
2022/08/30 05:17:05;;;;;;;6.23;2.47;;;15.50;98.30;;;;;;5046655;28;20518;-74
2022/08/30 05:19:51;;;;;;;7.40;3.23;;;15.60;98.40;;;;;;5052433;28;20938;-74
2022/08/30 05:22:38;;;;;;;8.47;3.23;;;15.60;98.40;;;;;;5052874;28;20467;-73
2022/08/30 05:25:25;;;;;;;5.27;2.80;;;15.70;98.30;;;;;;5048239;28;20549;-74
2022/08/30 05:28:11;;;;;;;11.07;3.00;;;15.80;97.20;;;;;;5049121;28;21004;-73
2022/08/30 05:30:57;;;;;;;4.77;3.10;;;15.90;97.30;;;;;;5053974;28;20482;-73
2022/08/30 05:33:45;;;;;;;7.60;3.67;;;15.90;96.60;;;;;;5052637;28;20598;-73
2022/08/30 05:36:33;;;;;;;6.57;3.57;;;16.00;96.30;;;;;;5053842;28;20945;-74
2022/08/30 05:39:18;;;;;;;4.93;2.40;;;15.70;96.90;;;;;;5055300;28;20475;-74
2022/08/30 05:42:04;;;;;;;11.70;3.10;;;15.80;98.00;;;;;;5050820;28;20426;-74
2022/08/30 05:44:51;;;;;;;11.57;2.90;;;15.80;98.30;;;;;;5046190;28;20450;-74
2022/08/30 05:47:37;;;;;;;6.87;2.80;;;15.90;98.70;;;;;;5049388;28;20475;-74
2022/08/30 05:50:24;;;;;;;4.10;2.57;;;16.00;98.90;;;;;;5049506;28;20472;-74
2022/08/30 05:53:09;;;;;;;4.80;2.70;;;16.30;98.70;;;;;;5052392;28;20541;-75
2022/08/30 05:55:55;;;;;;;3.87;2.70;;;16.50;98.70;;;;;;5045326;28;20593;-74
2022/08/30 05:58:41;;;;;;;8.20;2.87;;;16.70;97.10;;;;;;5055030;28;20466;-74
2022/08/30 06:01:30;;;;;;;6.77;3.07;;;16.80;96.90;;;;;;5049633;28;20934;-74
2022/08/30 06:04:16;;;;;;;15.63;3.23;;;16.90;96.90;;;;;;5050112;28;20794;-74
2022/08/30 06:07:04;;;;;;;6.60;2.77;;;17.10;96.50;;;;;;5045988;28;20447;-74
2022/08/30 06:09:49;;;;;;;4.37;2.83;;;17.20;97.20;;;;;;5050680;28;20848;-75
2022/08/30 06:12:35;;;;;;;6.70;3.13;;;17.30;96.90;;;;;;5049636;28;20810;-74
2022/08/30 06:15:21;;;;;;;5.80;3.07;;;17.50;97.30;;;;;;5049989;28;20439;-75
2022/08/30 06:18:07;;;;;;;7.60;3.10;;;17.60;96.80;;;;;;5051959;28;20449;-71
2022/08/30 06:20:52;;;;;;;5.03;2.67;;;17.70;96.80;;;;;;5041669;28;20534;-75
2022/08/30 06:23:39;;;;;;;6.33;2.60;;;17.90;96.30;;;;;;5049936;28;20446;-73
2022/08/30 06:26:25;;;;;;;6.17;3.33;;;18.00;95.60;;;;;;5050206;28;20511;-72
2022/08/30 06:29:14;;;;;;;5.80;3.20;;;18.10;95.30;;;;;;5048958;28;20623;-72
2022/08/30 06:32:00;;;;;;;5.47;3.07;;;18.10;95.60;;;;;;5043503;28;20535;-72
2022/08/30 06:34:47;;;;;;;11.07;3.33;;;18.20;95.80;;;;;;5051171;28;20477;-72
2022/08/30 06:37:32;;;;;;;5.80;2.73;;;18.20;95.40;;;;;;5045909;28;20443;-73
2022/08/30 06:40:20;;;;;;;4.77;2.63;;;18.20;95.70;;;;;;5049874;28;20991;-73
2022/08/30 06:43:06;;;;;;;8.07;2.97;;;18.30;95.10;;;;;;5044448;28;20455;-74
2022/08/30 06:45:51;;;;;;;7.53;3.47;;;18.50;95.50;;;;;;5047389;28;20494;-73
2022/08/30 06:48:37;;;;;;;6.00;3.00;;;18.60;95.80;;;;;;5045662;28;20956;-72
2022/08/30 06:51:25;;;;;;;6.90;2.70;;;18.70;95.60;;;;;;5038574;28;21122;-73
2022/08/30 06:54:12;;;;;;;5.63;2.70;;;18.70;96.20;;;;;;5044952;28;20990;-73
2022/08/30 06:56:59;;;;;;;3.80;2.43;;;18.80;96.20;;;;;;5049671;28;20949;-73
2022/08/30 06:59:44;;;;;;;6.83;3.33;;;18.90;95.50;;;;;;5049505;28;20473;-72
2022/08/30 07:02:30;;;;;;;8.27;3.60;;;19.10;96.10;;;;;;5048705;28;20529;-72
2022/08/30 07:05:16;;;;;;;7.10;3.23;;;19.20;96.30;;;;;;5050686;28;20622;-73
2022/08/30 07:08:02;;;;;;;5.97;3.13;;;19.20;94.20;;;;;;5051280;28;20423;-72
2022/08/30 07:10:48;;;;;;;6.87;3.10;;;19.40;95.00;;;;;;5047802;28;20534;-72
2022/08/30 07:13:36;;;;;;;11.07;3.10;;;19.60;95.00;;;;;;5042277;28;20448;-73
2022/08/30 07:16:21;;;;;;;7.63;3.50;;;19.70;93.20;;;;;;5047512;28;21014;-73
2022/08/30 07:19:07;;;;;;;7.90;3.30;;;19.90;89.90;;;;;;5050619;28;20446;-73
2022/08/30 07:21:53;;;;;;;7.90;2.90;;;20.00;91.30;;;;;;5039793;28;20444;-72
2022/08/30 07:24:39;;;;;;;7.67;3.40;;;20.20;91.30;;;;;;5050412;28;20953;-71
2022/08/30 07:27:24;;;;;;;5.00;3.00;;;20.30;91.60;;;;;;5045041;28;20940;-73
2022/08/30 07:30:13;;;;;;;7.93;3.40;;;20.50;91.30;;;;;;5045653;28;20518;-73
2022/08/30 07:32:59;;;;;;;6.93;2.80;;;20.70;89.40;;;;;;5049245;28;20891;-73
2022/08/30 07:35:44;;;;;;;13.17;2.87;;;20.80;89.20;;;;;;5050607;28;20940;-73
2022/08/30 07:38:31;;;;;;;5.87;3.63;;;20.90;90.00;;;;;;5050191;28;20460;-72
2022/08/30 07:41:18;;;;;;;7.33;3.10;;;21.00;84.70;;;;;;5044278;28;20940;-73
2022/08/30 07:44:05;;;;;;;14.83;3.80;;;21.00;82.70;;;;;;5049158;28;20424;-73
2022/08/30 07:46:52;;;;;;;7.80;3.23;;;21.10;84.30;;;;;;5048727;28;20422;-73
2022/08/30 07:49:38;;;;;;;6.67;3.07;;;21.20;77.80;;;;;;5050175;28;21060;-72
2022/08/30 07:52:24;;;;;;;8.63;3.87;;;21.40;77.40;;;;;;5046194;28;20422;-73
2022/08/30 07:55:10;;;;;;;7.63;3.40;;;21.60;71.20;;;;;;5053956;28;21119;-73
2022/08/30 07:57:55;;;;;;;7.33;2.80;;;21.70;72.80;;;;;;5054587;28;20427;-73
2022/08/30 08:00:41;;;;;;;6.40;2.97;;;21.80;71.60;;;;;;5050061;28;20970;-73
2022/08/30 08:03:29;;;;;;;9.50;2.93;;;21.90;67.10;;;;;;5054376;28;20431;-73
2022/08/30 08:06:17;;;;;;;6.93;2.83;;;22.00;57.30;;;;;;5050166;28;20443;-73
2022/08/30 08:09:02;;;;;;;8.07;3.30;;;22.20;58.30;;;;;;5052707;28;20444;-70
2022/08/30 08:11:48;;;;;;;6.70;2.93;;;22.40;55.90;;;;;;5053851;28;20466;-73
2022/08/30 08:14:34;;;;;;;5.57;2.60;;;22.60;55.60;;;;;;5053200;28;20452;-73
2022/08/30 08:17:20;;;;;;;6.87;3.40;;;22.80;50.50;;;;;;5047583;28;20427;-73
2022/08/30 08:20:07;;;;;;;9.20;3.30;;;22.90;51.60;;;;;;5050538;28;20976;-73
2022/08/30 08:22:53;;;;;;;7.27;3.03;;;23.10;46.90;;;;;;5051967;28;20419;-73
2022/08/30 08:25:40;;;;;;;9.20;2.73;;;23.20;45.50;;;;;;5049126;28;20447;-74
2022/08/30 08:28:26;;;;;;;4.80;2.67;;;23.40;46.00;;;;;;5047112;28;20578;-73
2022/08/30 08:31:16;;;;;;;5.63;2.90;;;23.50;45.70;;;;;;5050846;28;20517;-73
2022/08/30 08:34:04;;;;;;;8.20;2.90;;;23.60;45.40;;;;;;5052494;28;20599;-70
2022/08/30 08:36:51;;;;;;;5.43;2.83;;;23.70;44.90;;;;;;5052109;28;20455;-73
2022/08/30 08:39:37;;;;;;;13.87;3.07;;;23.70;43.50;;;;;;5050326;28;20483;-72
2022/08/30 08:42:32;;;;;;;9.30;3.80;;;23.70;43.50;;;;;;5052440;28;20547;-73
2022/08/30 08:45:23;;;;;;;7.37;2.63;;;23.70;45.00;;;;;;5051182;28;20820;-73
2022/08/30 08:48:12;;;;;;;6.53;3.10;;;23.80;40.40;;;;;;5045530;28;20442;-73
2022/08/30 08:54:08;;;;;;;12.43;3.13;;;23.80;41.40;;;;;;5053523;28;20428;-73
2022/08/30 08:56:54;;;;;;;7.20;2.73;;;23.90;39.20;;;;;;5051744;28;20452;-74
2022/08/30 08:59:40;;;;;;;8.20;2.53;;;24.00;41.30;;;;;;5045066;28;20490;-73
2022/08/30 09:02:28;;;;;;;12.50;3.23;;;24.00;40.30;;;;;;5053365;28;20487;-72
2022/08/30 09:05:18;;;;;;;4.50;2.33;;;24.10;39.80;;;;;;5050931;28;20793;-73
2022/08/30 09:08:06;;;;;;;5.83;2.50;;;24.20;40.00;;;;;;5052713;28;20557;-71
2022/08/30 09:11:00;;;;;;;6.43;3.40;;;24.40;41.80;;;;;;5049137;28;20848;-74
2022/08/30 09:13:46;;;;;;;5.40;2.80;;;24.50;39.10;;;;;;5052824;28;20444;-72
2022/08/30 09:17:04;;;;;;;8.87;3.33;;;24.60;37.40;;;;;;5051964;28;20455;-73
2022/08/30 09:19:59;;;;;;;8.93;3.13;;;24.80;37.10;;;;;;4963098;28;20490;-74
2022/08/30 09:22:45;;;;;;;6.97;3.20;;;24.90;34.40;;;;;;5052998;28;20428;-73
2022/08/30 09:25:32;;;;;;;5.67;2.57;;;25.10;34.10;;;;;;5052805;28;20578;-73
2022/08/30 09:28:24;;;;;;;7.33;3.10;;;25.20;34.30;;;;;;5048105;28;20996;-73
2022/08/30 09:31:20;;;;;;;4.80;3.03;;;25.30;34.60;;;;;;5044387;28;20474;-73
2022/08/30 09:34:07;;;;;;;5.97;3.20;;;25.50;34.20;;;;;;5052707;28;20494;-73
2022/08/30 09:36:54;;;;;;;8.73;2.87;;;25.50;31.30;;;;;;5052729;28;20427;-73
2022/08/30 09:39:43;;;;;;;6.07;3.10;;;25.70;31.10;;;;;;5050273;28;20633;-72
2022/08/30 09:42:30;;;;;;;6.43;3.30;;;25.80;30.70;;;;;;5051773;28;20423;-73
2022/08/30 09:45:31;;;;;;;8.80;3.50;;;25.90;31.30;;;;;;5048630;28;20514;-73
2022/08/30 09:48:31;;;;;;;9.50;3.43;;;26.00;31.40;;;;;;5046804;28;20528;-72
2022/08/30 09:51:45;;;;;;;6.63;3.20;;;26.00;29.40;;;;;;5050103;28;20513;-74
2022/08/30 09:54:39;;;;;;;4.57;3.23;;;26.10;30.50;;;;;;5043832;28;20485;-73
2022/08/30 09:57:35;;;;;;;8.40;2.80;;;26.10;29.70;;;;;;5046264;28;20448;-70
2022/08/30 10:00:27;;;;;;;8.10;2.80;;;26.30;27.70;;;;;;5042137;28;20546;-73
2022/08/30 10:03:26;;;;;;;11.77;2.93;;;26.30;28.10;;;;;;5052709;28;20944;-73
2022/08/30 10:06:25;;;;;;;6.00;2.67;;;26.30;29.70;;;;;;5049119;28;20443;-72
2022/08/30 10:09:20;;;;;;;6.53;2.93;;;26.50;29.70;;;;;;5039643;28;20482;-73
2022/08/30 10:12:12;;;;;;;4.40;2.83;;;26.60;29.10;;;;;;5046910;28;21110;-73
2022/08/30 10:15:06;;;;;;;5.30;3.00;;;26.60;28.40;;;;;;5048271;28;20557;-73
2022/08/30 10:18:03;;;;;;;6.03;3.00;;;26.60;26.90;;;;;;5051027;28;21172;-73
2022/08/30 10:21:00;;;;;;;6.67;2.70;;;26.80;28.40;;;;;;5040537;28;20530;-73
2022/08/30 10:23:51;;;;;;;7.83;2.73;;;26.90;27.90;;;;;;5051506;28;20456;-72
2022/08/30 10:26:42;;;;;;;7.90;3.30;;;27.00;26.80;;;;;;5042420;28;20441;-73
2022/08/30 10:29:31;;;;;;;7.00;3.00;;;27.10;27.60;;;;;;5041736;28;20987;-73
2022/08/30 10:32:22;;;;;;;13.50;3.73;;;27.10;25.60;;;;;;5044170;28;20823;-72
2022/08/30 10:35:15;;;;;;;6.57;2.80;;;27.20;26.70;;;;;;5043180;28;20969;-73
2022/08/30 10:38:06;;;;;;;4.83;3.00;;;27.30;26.60;;;;;;5051547;28;20919;-72
2022/08/30 10:41:14;;;;;;;6.30;3.20;;;27.50;26.30;;;;;;5043711;28;20451;-72
2022/08/30 10:44:03;;;;;;;6.43;3.00;;;27.60;25.40;;;;;;5043562;28;20602;-72
2022/08/30 10:47:01;;;;;;;5.17;3.00;;;27.60;25.50;;;;;;5051424;28;20910;-71
2022/08/30 10:49:49;;;;;;;7.73;2.73;;;27.70;25.60;;;;;;5042395;28;20823;-71
2022/08/30 10:52:41;;;;;;;11.20;3.90;;;27.70;25.00;;;;;;5049785;28;20553;-72
2022/08/30 10:55:31;;;;;;;5.37;3.23;;;27.80;24.60;;;;;;5040680;28;20619;-72
2022/08/30 10:58:17;;;;;;;5.17;3.17;;;27.80;25.00;;;;;;5046238;28;21075;-71
2022/08/30 11:01:30;;;;;;;4.63;3.77;;;27.90;24.90;;;;;;5045107;28;20481;-72
2022/08/30 11:04:48;;;;;;;4.80;3.20;;;27.80;24.70;;;;;;5040726;28;20427;-72
2022/08/30 11:07:43;;;;;;;6.47;3.30;;;27.60;25.20;;;;;;5049196;28;20810;-71
2022/08/30 11:10:45;;;;;;;6.40;3.07;;;27.50;26.10;;;;;;5046013;28;20980;-72
2022/08/30 11:13:35;;;;;;;5.10;3.10;;;27.50;26.00;;;;;;5046368;28;20439;-72
2022/08/30 11:16:33;;;;;;;12.60;3.60;;;27.60;25.50;;;;;;5042600;28;20451;-72
2022/08/30 11:19:24;;;;;;;6.60;3.23;;;27.70;24.60;;;;;;5047150;28;20502;-72
2022/08/30 11:22:14;;;;;;;4.17;2.83;;;27.60;24.60;;;;;;5049291;28;20458;-72
2022/08/30 11:25:10;;;;;;;5.50;3.20;;;27.60;25.30;;;;;;5044924;28;20593;-72
2022/08/30 11:27:57;;;;;;;5.20;3.23;;;27.60;25.50;;;;;;5043776;28;20550;-73
2022/08/30 11:30:50;;;;;;;5.90;3.37;;;27.80;26.20;;;;;;5049005;28;20450;-72
2022/08/30 11:33:47;;;;;;;4.03;2.50;;;27.80;24.20;;;;;;5052297;28;20822;-72
2022/08/30 11:37:06;;;;;;;5.90;3.53;;;27.80;24.40;;;;;;5052155;28;20444;-72
2022/08/30 11:39:57;;;;;;;5.63;3.83;;;27.70;24.90;;;;;;5045359;28;20608;-72
2022/08/30 11:42:46;;;;;;;8.23;3.27;;;27.70;24.40;;;;;;5042861;28;20453;-72
2022/08/30 11:45:51;;;;;;;3.80;2.67;;;27.70;25.30;;;;;;5040297;28;20822;-72
2022/08/30 11:48:44;;;;;;;4.00;2.60;;;27.70;23.90;;;;;;5052487;28;20634;-72
2022/08/30 11:51:50;;;;;;;5.20;3.10;;;27.50;25.00;;;;;;5048697;28;20481;-72
2022/08/30 11:54:44;;;;;;;7.67;3.47;;;27.50;25.80;;;;;;5043294;28;20452;-72
2022/08/30 11:57:37;;;;;;;8.10;3.50;;;27.60;25.00;;;;;;5048522;28;20956;-72
2022/08/30 12:00:31;;;;;;;8.03;3.60;;;27.80;24.00;;;;;;5044435;28;20443;-71
2022/08/30 12:03:32;;;;;;;4.73;3.50;;;28.10;23.90;;;;;;5045360;28;21173;-70
2022/08/30 12:06:49;;;;;;;9.43;3.57;;;28.40;23.10;;;;;;5042038;28;20440;-70
2022/08/30 12:10:02;;;;;;;4.87;3.00;;;28.50;22.30;;;;;;5041803;28;20478;-70
2022/08/30 12:12:51;;;;;;;3.83;2.70;;;28.40;22.50;;;;;;5050275;28;20479;-70
2022/08/30 12:15:57;;;;;;;4.33;3.20;;;28.20;22.60;;;;;;5047237;28;21031;-70
2022/08/30 12:18:46;;;;;;;6.70;2.80;;;27.90;23.70;;;;;;5046133;28;20586;-71
2022/08/30 12:21:34;;;;;;;5.57;3.27;;;27.80;24.40;;;;;;5048128;28;20545;-71
2022/08/30 12:24:25;;;;;;;8.20;3.10;;;27.80;23.80;;;;;;5042346;28;21145;-71
2022/08/30 12:27:22;;;;;;;6.57;3.30;;;28.00;24.50;;;;;;5048165;28;21018;-71
2022/08/30 12:30:09;;;;;;;4.40;3.20;;;28.30;24.90;;;;;;5047004;28;20474;-71
2022/08/30 12:32:57;;;;;;;6.03;3.10;;;28.60;24.10;;;;;;5047826;28;20585;-71
2022/08/30 12:35:44;;;;;;;6.17;3.60;;;29.00;22.70;;;;;;5051993;28;20576;-71
2022/08/30 12:38:30;;;;;;;5.37;3.60;;;29.20;22.60;;;;;;5050269;28;20888;-71
2022/08/30 12:41:21;;;;;;;5.57;3.20;;;29.40;21.80;;;;;;5049765;28;20459;-71
2022/08/30 12:44:09;;;;;;;5.83;3.37;;;29.60;22.00;;;;;;5054657;28;20534;-71
2022/08/30 12:46:57;;;;;;;8.13;3.20;;;29.70;19.90;;;;;;5053896;28;20505;-71
2022/08/30 12:49:46;;;;;;;5.00;3.07;;;29.90;20.40;;;;;;5051156;28;20542;-71
2022/08/30 12:52:36;;;;;;;7.03;4.30;;;30.00;19.60;;;;;;5052815;28;20955;-71
2022/08/30 12:55:26;;;;;;;5.77;3.40;;;30.00;20.60;;;;;;5051321;28;20459;-71
2022/08/30 12:58:14;;;;;;;4.17;3.20;;;30.10;20.40;;;;;;5053323;28;20459;-71
2022/08/30 13:01:25;;;;;;;3.73;2.83;;;30.30;19.60;;;;;;5048127;28;20822;-71
2022/08/30 13:04:18;;;;;;;7.40;3.00;;;30.50;20.50;;;;;;5051570;28;20452;-71
2022/08/30 13:07:05;;;;;;;5.30;3.00;;;30.60;19.10;;;;;;5051560;28;20454;-71
2022/08/30 13:09:59;;;;;;;5.80;3.10;;;30.70;19.30;;;;;;5046326;28;20471;-71
2022/08/30 13:13:02;;;;;;;6.43;3.00;;;30.80;19.10;;;;;;5053059;28;20557;-71
2022/08/30 13:15:49;;;;;;;7.67;3.30;;;30.70;19.80;;;;;;5052368;28;20462;-71
2022/08/30 13:18:35;;;;;;;5.00;3.23;;;30.60;19.30;;;;;;5051289;28;20545;-71
2022/08/30 13:21:29;;;;;;;6.90;3.10;;;30.30;19.70;;;;;;5051742;28;20954;-71
2022/08/30 13:24:16;;;;;;;5.00;3.50;;;30.20;19.40;;;;;;5045743;28;20498;-71
2022/08/30 13:27:08;;;;;;;6.23;3.33;;;30.10;20.00;;;;;;5050350;28;20536;-71
2022/08/30 13:29:54;;;;;;;7.87;3.40;;;30.20;19.60;;;;;;5048036;28;20601;-71
2022/08/30 13:32:40;;;;;;;9.03;3.30;;;30.50;19.50;;;;;;5050992;28;20466;-71
2022/08/30 13:35:25;;;;;;;5.67;3.30;;;30.60;19.10;;;;;;5050618;28;20456;-71
2022/08/30 13:38:11;;;;;;;8.60;4.10;;;30.30;19.10;;;;;;5046116;28;20483;-71
2022/08/30 13:40:58;;;;;;;5.00;2.90;;;30.00;19.70;;;;;;5050847;28;20963;-71
2022/08/30 13:43:44;;;;;;;5.73;3.57;;;29.80;20.60;;;;;;5051558;28;20470;-71
2022/08/30 13:46:29;;;;;;;4.80;3.00;;;29.80;20.60;;;;;;5054213;28;20456;-71
2022/08/30 13:49:18;;;;;;;4.47;3.00;;;29.90;20.00;;;;;;5045751;28;20824;-71
2022/08/30 13:52:05;;;;;;;5.30;3.63;;;30.20;20.60;;;;;;5050937;28;20468;-71
2022/08/30 13:54:52;;;;;;;5.80;3.10;;;30.50;19.40;;;;;;5047606;28;20447;-72
2022/08/30 13:57:39;;;;;;;7.03;2.93;;;30.80;18.20;;;;;;5054492;28;20450;-72
2022/08/30 14:00:26;;;;;;;13.13;3.07;;;31.00;17.90;;;;;;5049944;28;20438;-71
2022/08/30 14:03:12;;;;;;;5.43;3.40;;;31.10;18.10;;;;;;5053189;28;20448;-71
2022/08/30 14:05:58;;;;;;;9.77;3.30;;;31.20;17.40;;;;;;5048308;28;20993;-72
2022/08/30 14:08:44;;;;;;;6.10;3.33;;;31.20;17.50;;;;;;5047962;28;20573;-71
2022/08/30 14:11:30;;;;;;;8.90;3.47;;;31.20;17.10;;;;;;5051912;28;20438;-72
2022/08/30 14:14:17;;;;;;;8.93;3.60;;;31.20;17.70;;;;;;5044706;28;20502;-74
2022/08/30 14:17:02;;;;;;;6.00;3.17;;;31.00;17.70;;;;;;5051253;28;20849;-72
2022/08/30 14:19:48;;;;;;;5.30;3.57;;;31.00;18.20;;;;;;5048591;28;20622;-72
2022/08/30 14:22:33;;;;;;;5.90;3.30;;;31.00;17.40;;;;;;5045912;28;20554;-72
2022/08/30 14:25:19;;;;;;;4.40;3.30;;;30.80;17.80;;;;;;5045347;28;20428;-72
2022/08/30 14:28:05;;;;;;;4.10;3.10;;;30.60;18.40;;;;;;5046008;28;20462;-72
2022/08/30 14:30:52;;;;;;;5.33;3.50;;;30.30;18.00;;;;;;5049511;28;20944;-72
2022/08/30 14:33:38;;;;;;;6.43;2.93;;;30.10;19.70;;;;;;5051671;28;20471;-72
2022/08/30 14:36:23;;;;;;;5.13;3.10;;;30.10;18.70;;;;;;5045560;28;20415;-72
2022/08/30 14:39:13;;;;;;;4.23;3.30;;;30.20;20.10;;;;;;5049420;28;21070;-72
2022/08/30 14:41:59;;;;;;;5.40;3.50;;;30.40;19.80;;;;;;5051286;28;20432;-72